Station: Cressy (Cfa)  

  Atmospheric Gas Attenuation - ITU Rec 676-11   ----------------- dB/100km -----------------
Date Time Temp RH % AH g/m3 Dew Point Wind Direction Speed kph Gust kph Barometer mB Rainfall Since 9am 24GHz 47GHz 76GHz 122GHz 134GHz 241GHz
08/05 12:30 15.5 71 9.38 10.4 33 37 1013.1 0 21.2 26.7 42.1 110.5 106.5 367.0
08/05 12:20 15.6 71 9.44 10.5 33 37 1013.1 0 21.3 26.7 42.2 111.0 107.1 369.3
08/05 12:10 16.2 69 9.51 10.6 32 35 1013.1 0 21.4 26.7 42.2 110.9 107.2 369.7
08/05 12:00 15.9 71 9.61 10.7 33 39 1013.1 0 21.6 26.9 42.8 112.4 109.0 375.8
08/05 11:50 15.8 72 9.69 10.9 32 37 1013.1 0 21.8 27.1 43.1 113.4 110.2 380.0
08/05 11:40 14.5 78 9.7 10.7 30 37 1013.1 0 21.9 27.5 43.9 115.4 112.2 386.8
08/05 11:30 15.5 78 10.31 11.7 32 35 1013.1 0 23.2 28.2 45.9 120.7 119.0 410.8
08/05 11:20 15.3 76 9.92 11.2 32 37 1013.1 0 22.3 27.6 44.4 116.7 114.0 393.3
08/05 11:10 14.8 80 10.13 11.5 33 39 1013.1 0 22.8 28.1 45.5 119.7 117.6 405.9
08/05 11:00 15.3 77 10.06 11.3 35 37 1013.1 0 22.6 27.8 44.9 118.2 115.9 399.9
08/05 10:50 15.5 77 10.18 11.6 30 35 1013.1 0 22.9 28.0 45.3 119.2 117.2 404.6
08/05 10:40 15 77 9.87 11.1 33 35 1013.1 0 22.2 27.6 44.3 116.6 113.8 392.4
08/05 10:30 14.8 78 9.88 11.1 32 37 1013.1 0 22.3 27.7 44.5 117.0 114.2 393.9
08/05 10:20 14.5 81 10.07 11.3 32 35 1013.1 0 22.7 28.1 45.4 119.5 117.3 404.5
08/05 10:10 14.3 84 10.32 11.6 30 33 1013.1 0 23.2 28.6 46.6 122.7 121.0 417.7
08/05 10:00 14.1 86 10.44 11.8 32 39 1013.1 0 23.5 28.9 47.3 124.3 123.0 424.7
08/05 09:50 13.8 86 10.25 11.5 32 33 1013.1 0 23.1 28.6 46.6 122.7 120.8 417.0
08/05 09:40 13.7 89 10.54 12 24 26 1013.1 0 23.8 29.2 47.9 126.1 125.1 431.8
08/05 09:30 13.2 93 10.68 12.1 24 28 1013.1 0 24.1 29.6 48.8 128.6 127.9 441.6
08/05 09:20 12.9 95 10.71 12.2 24 26 1013.1 0 24.2 29.7 49.2 129.4 128.9 444.8
08/05 09:10 12.5 96 10.56 11.9 20 24 1013.1 0 23.9 29.6 48.8 128.3 127.4 439.6
08/05 09:00 12.3 96 10.43 11.7 24 28 1013.1 3.4 23.6 29.5 48.3 127.2 125.8 434.2
08/05 08:50 12.4 96 10.49 11.8 22 26 1013.1 3.4 23.7 29.5 48.5 127.7 126.5 436.6
08/05 08:40 12.3 97 10.53 11.8 22 28 1013.1 3.4 23.8 29.6 48.8 128.3 127.3 439.2
08/05 08:30 11.9 97 10.27 11.4 22 24 1013.1 3.4 23.3 29.3 47.9 125.9 124.2 428.4
08/05 08:20 11.9 97 10.27 11.5 22 26 1013.1 3.4 23.3 29.3 47.9 125.9 124.2 428.4
08/05 08:10 11.7 97 10.15 11.2 20 22 1013.1 3.4 23.0 29.2 47.5 124.9 122.8 423.5
08/05 08:00 11.7 97 10.15 11.2 22 26 1013.1 3.4 23.0 29.2 47.5 124.9 122.8 423.5
08/05 07:50 11.6 97 10.08 11.2 20 22 1013.1 3.2 22.9 29.1 47.2 124.2 121.9 420.5
08/05 07:40 11.4 97 9.96 11 20 22 1013.1 3.2 22.6 28.9 46.8 123.1 120.5 415.6
08/05 07:30 11.5 97 10.02 11.1 22 24 1013.1 3.2 22.8 29.0 47.0 123.7 121.2 418.0
08/05 07:20 11.5 97 10.02 11.1 22 24 1013.1 3.2 22.8 29.0 47.0 123.7 121.2 418.0
08/05 07:10 11.5 97 10.02 11.1 22 26 1013.1 3.2 22.8 29.0 47.0 123.7 121.2 418.0
08/05 07:00 11.5 97 10.02 11.1 20 22 1013.1 3.2 22.8 29.0 47.0 123.7 121.2 418.0
08/05 06:50 11.5 97 10.02 11.1 22 26 1013.1 3 22.8 29.0 47.0 123.7 121.2 418.0
08/05 06:40 11.5 97 10.02 11.1 22 26 1013.1 3 22.8 29.0 47.0 123.7 121.2 418.0
08/05 06:30 11.5 97 10.02 11 19 20 1013.1 3 22.8 29.0 47.0 123.7 121.2 418.0
08/05 06:20 11.5 97 10.02 11 24 32 1013.1 2.8 22.8 29.0 47.0 123.7 121.2 418.0
08/05 06:10 11.5 97 10.02 11 28 32 1013.1 2.8 22.8 29.0 47.0 123.7 121.2 418.0
08/05 06:00 11.5 97 10.02 11 28 30 1013.1 2.6 22.8 29.0 47.0 123.7 121.2 418.0
08/05 05:50 11.6 97 10.08 11.1 24 26 1013.1 2.6 22.9 29.1 47.2 124.2 121.9 420.5
08/05 05:40 11.7 95 9.94 11 20 24 1013.1 2.6 22.6 28.8 46.5 122.4 119.8 413.0
08/05 05:30 11.7 95 9.94 11 26 30 1013.1 2.6 22.6 28.8 46.5 122.4 119.8 413.0
08/05 05:20 11.6 96 9.98 11 24 32 1013.1 2.6 22.7 28.9 46.8 123.0 120.5 415.5
08/05 05:10 11.6 96 9.98 11 22 26 1013.1 2.6 22.7 28.9 46.8 123.0 120.5 415.5
08/05 05:00 11.7 95 9.94 11 28 32 1013.1 2.6 22.6 28.8 46.5 122.4 119.8 413.0
08/05 04:50 11.7 95 9.94 11 28 32 1013.1 2.6 22.6 28.8 46.5 122.4 119.8 413.0
08/05 04:40 11.6 97 10.08 11.1 30 33 1013.1 2.6 22.9 29.1 47.2 124.2 121.9 420.5
08/05 04:30 11.6 97 10.08 11.2 26 32 1013.1 2.6 22.9 29.1 47.2 124.2 121.9 420.5
08/05 04:20 11.6 98 10.19 11.3 28 33 1013.1 2.6 23.1 29.3 47.7 125.5 123.5 426.0
08/05 04:10 11.7 97 10.15 11.3 32 35 1013.1 2.6 23.0 29.2 47.5 124.9 122.8 423.5
08/05 04:00 11.6 98 10.19 11.3 32 35 1013.1 2.2 23.1 29.3 47.7 125.5 123.5 426.0
08/05 03:50 11.7 97 10.15 11.3 32 35 1013.1 2.2 23.0 29.2 47.5 124.9 122.8 423.5
08/05 03:40 11.8 97 10.21 11.4 30 32 1013.1 2.2 23.2 29.2 47.7 125.4 123.5 425.9
08/05 03:30 11.8 97 10.21 11.4 28 33 1013.1 2 23.2 29.2 47.7 125.4 123.5 425.9
08/05 03:20 11.8 97 10.21 11.4 28 30 1013.1 2 23.2 29.2 47.7 125.4 123.5 425.9
08/05 03:10 11.8 97 10.21 11.4 28 32 1013.1 1.8 23.2 29.2 47.7 125.4 123.5 425.9
08/05 03:00 11.7 98 10.25 11.4 30 33 1013.1 1.8 23.2 29.3 47.9 126.0 124.2 428.5
08/05 02:50 11.8 98 10.32 11.5 30 33 1013.1 1.8 23.4 29.4 48.1 126.7 125.1 431.5
08/05 02:40 11.7 98 10.25 11.4 26 32 1013.1 1.4 23.2 29.3 47.9 126.0 124.2 428.5
08/05 02:30 11.6 98 10.19 11.3 24 28 1013.1 1.4 23.1 29.3 47.7 125.5 123.5 426.0
08/05 02:20 11.5 98 10.12 11.2 22 26 1013.1 1.4 23.0 29.2 47.4 124.8 122.7 423.1
08/05 02:10 11.5 97 10.02 11.1 24 26 1013.1 1.2 22.8 29.0 47.0 123.7 121.2 418.0
08/05 02:00 11.4 98 10.06 11.1 22 24 1013.1 1.2 22.9 29.1 47.2 124.3 122.0 420.6
08/05 01:50 11.4 98 10.06 11.1 26 28 1013.1 1.2 22.9 29.1 47.2 124.3 122.0 420.6
08/05 01:40 11.3 98 10 11 24 30 1013.1 1.2 22.7 29.0 47.0 123.8 121.3 418.1
08/05 01:30 11.3 98 10 11 28 30 1013.1 1 22.7 29.0 47.0 123.8 121.3 418.1
08/05 01:20 11.2 97 9.83 10.8 26 26 1013.1 1 22.4 28.8 46.4 121.9 119.0 410.1
08/05 01:10 11.1 98 9.87 10.8 22 24 1013.1 1 22.5 28.9 46.6 122.6 119.7 412.7
08/05 01:00 11.1 98 9.87 10.8 22 24 1013.1 1 22.5 28.9 46.6 122.6 119.7 412.7
08/05 00:50 11 98 9.81 10.7 24 28 1013.1 1 22.3 28.8 46.4 122.0 119.0 410.2
08/05 00:40 11 98 9.81 10.7 26 28 1013.1 1 22.3 28.8 46.4 122.0 119.0 410.2
08/05 00:30 10.9 97 9.65 10.5 26 30 1013.1 1 22.0 28.6 45.8 120.3 116.9 402.7
08/05 00:20 10.8 97 9.59 10.4 24 28 1013.1 0.8 21.9 28.5 45.6 119.8 116.2 400.2
08/05 00:10 10.8 97 9.59 10.4 24 28 1013.1 0.8 21.9 28.5 45.6 119.8 116.2 400.2
08/05 00:00 10.7 97 9.53 10.3 24 28 1013.1 0.8 21.7 28.4 45.4 119.2 115.5 397.8
07/05 23:50 10.7 97 9.53 10.3 26 28 1013.1 0.8 21.7 28.4 45.4 119.2 115.5 397.8
07/05 23:40 10.5 98 9.51 10.2 28 30 1013.1 0.6 21.7 28.4 45.4 119.3 115.5 397.8
07/05 23:30 10.5 97 9.41 10.1 30 33 1013.1 0.6 21.5 28.3 44.9 118.2 114.1 392.8
07/05 23:20 10.4 97 9.35 10 26 30 1013.1 0.6 21.4 28.2 44.7 117.6 113.4 390.3
07/05 23:10 10.3 97 9.29 9.9 26 28 1013.1 0.6 21.3 28.1 44.5 117.1 112.6 387.9
07/05 23:00 10.2 97 9.23 9.8 26 30 1013.1 0.6 21.1 28.0 44.3 116.5 111.9 385.4
07/05 22:50 10.1 97 9.17 9.7 24 28 1013.1 0.6 21.0 28.0 44.1 116.0 111.2 382.9
07/05 22:40 10 97 9.12 9.6 26 32 1013.1 0.6 20.9 27.9 44.0 115.6 110.7 380.9
07/05 22:30 10 97 9.12 9.5 26 28 1013.1 0.6 20.9 27.9 44.0 115.6 110.7 380.9
07/05 22:20 9.9 97 9.06 9.4 28 32 1013.1 0.6 20.8 27.8 43.8 115.0 110.0 378.4
07/05 22:10 9.8 97 9 9.3 28 30 1013.1 0.4 20.6 27.8 43.6 114.5 109.3 375.9
07/05 22:00 9.8 96 8.91 9.2 26 28 1013.1 0.4 20.5 27.6 43.2 113.5 108.0 371.5
07/05 21:50 9.8 96 8.91 9.2 28 32 1013.1 0.4 20.5 27.6 43.2 113.5 108.0 371.5
07/05 21:40 9.7 96 8.85 9.1 28 32 1013.1 0.4 20.3 27.5 43.0 112.9 107.3 369.0
07/05 21:30 9.7 95 8.76 9 28 32 1013.1 0.4 20.1 27.4 42.6 111.9 106.0 364.6
07/05 21:20 9.6 96 8.8 9 28 32 1013.1 0.4 20.2 27.5 42.8 112.5 106.7 367.0
07/05 21:10 9.5 96 8.74 8.9 30 37 1013.1 0.4 20.1 27.4 42.6 111.9 106.0 364.5
07/05 21:00 9.5 96 8.74 8.9 30 33 1013.1 0.4 20.1 27.4 42.6 111.9 106.0 364.5
07/05 20:50 9.4 96 8.69 8.8 28 33 1013.1 0.4 20.0 27.4 42.5 111.5 105.4 362.5
07/05 20:40 9.3 96 8.63 8.7 26 30 1013.1 0.4 19.9 27.3 42.3 111.0 104.7 360.0
07/05 20:30 9.4 95 8.59 8.7 26 33 1013.1 0.4 19.8 27.2 42.0 110.4 104.0 357.6
07/05 20:20 9.4 95 8.59 8.6 28 32 1013.1 0.4 19.8 27.2 42.0 110.4 104.0 357.6
07/05 20:10 9.4 94 8.5 8.5 28 32 1013.1 0.4 19.6 27.0 41.6 109.3 102.8 353.2
07/05 20:00 9.3 94 8.45 8.4 30 32 1013.1 0.4 19.5 27.0 41.5 108.9 102.2 351.2

Last Refresh: 08-May-2026 12:10:21

Bureau of Meteorology